createdAt,value
2022-12-19T00:01:06.993Z,11.77
2022-12-19T00:03:33.360Z,9.43
2022-12-19T00:06:04.014Z,13.68
2022-12-19T00:08:30.391Z,14.15
2022-12-19T00:10:58.774Z,11.98
2022-12-19T00:13:25.939Z,13.43
2022-12-19T00:15:53.294Z,13.30
2022-12-19T00:18:20.074Z,13.68
2022-12-19T00:20:58.278Z,12.52
2022-12-19T00:23:24.633Z,13.68
2022-12-19T00:25:50.940Z,10.25
2022-12-19T00:28:18.614Z,14.48
2022-12-19T00:30:46.658Z,12.45
2022-12-19T00:33:13.066Z,13.32
2022-12-19T00:35:39.368Z,12.00
2022-12-19T00:38:05.704Z,6.28
2022-12-19T00:40:32.049Z,12.35
2022-12-19T00:42:58.389Z,14.10
2022-12-19T00:45:27.059Z,12.15
2022-12-19T00:47:55.453Z,12.55
2022-12-19T00:50:21.793Z,13.27
2022-12-19T00:52:48.159Z,12.40
2022-12-19T00:55:18.952Z,14.07
2022-12-19T00:57:46.359Z,12.43
2022-12-19T01:00:13.294Z,8.05
2022-12-19T01:02:39.787Z,10.88
2022-12-19T01:05:06.718Z,14.00
2022-12-19T01:07:33.138Z,13.23
2022-12-19T01:10:00.123Z,13.35
2022-12-19T01:12:45.290Z,13.27
2022-12-19T01:15:13.685Z,13.60
2022-12-19T01:17:44.078Z,8.43
2022-12-19T01:20:12.162Z,7.55
2022-12-19T01:22:38.526Z,7.75
2022-12-19T01:25:05.557Z,6.85
2022-12-19T01:27:31.938Z,13.27
2022-12-19T01:29:58.226Z,11.00
2022-12-19T01:32:24.562Z,14.57
2022-12-19T01:34:50.901Z,8.38
2022-12-19T01:37:17.698Z,13.50
2022-12-19T01:39:44.138Z,9.38
2022-12-19T01:42:20.280Z,13.55
2022-12-19T01:44:58.702Z,15.13
2022-12-19T01:47:26.295Z,14.02
2022-12-19T01:49:52.680Z,13.98
2022-12-19T01:52:23.529Z,12.30
2022-12-19T01:54:50.454Z,13.77
2022-12-19T01:57:19.397Z,10.48
2022-12-19T01:59:49.928Z,13.18
2022-12-19T02:02:31.155Z,10.40
2022-12-19T02:04:57.643Z,12.27
2022-12-19T02:07:26.139Z,14.63
2022-12-19T02:09:57.261Z,13.43
2022-12-19T02:12:26.269Z,13.65
2022-12-19T02:14:54.649Z,13.93
2022-12-19T02:17:52.775Z,14.27
2022-12-19T02:20:34.512Z,12.90
2022-12-19T02:23:00.759Z,12.70
2022-12-19T02:25:56.701Z,12.82
2022-12-19T02:28:51.484Z,14.15
2022-12-19T02:31:28.976Z,10.38
2022-12-19T02:34:44.720Z,12.95
2022-12-19T02:37:17.594Z,12.70
2022-12-19T02:40:05.360Z,14.02
2022-12-19T02:42:37.602Z,11.13
2022-12-19T02:45:07.768Z,13.05
2022-12-19T02:47:34.966Z,10.23
2022-12-19T02:50:02.708Z,11.38
2022-12-19T02:52:28.955Z,13.00
2022-12-19T02:55:00.229Z,14.38
2022-12-19T02:57:32.093Z,8.18
2022-12-19T03:00:17.691Z,9.23
2022-12-19T03:03:00.926Z,14.32
2022-12-19T03:05:49.263Z,13.63
2022-12-19T03:08:28.122Z,11.70
2022-12-19T03:11:00.036Z,11.82
2022-12-19T03:13:32.031Z,13.90
2022-12-19T03:15:59.233Z,11.82
2022-12-19T03:18:25.976Z,7.57
2022-12-19T03:21:10.647Z,11.63
2022-12-19T03:23:37.947Z,12.50
2022-12-19T03:26:09.265Z,13.02
2022-12-19T03:28:53.842Z,10.25
2022-12-19T03:31:24.999Z,12.32
2022-12-19T03:33:56.114Z,14.30
2022-12-19T03:36:31.458Z,11.27
2022-12-19T03:39:01.889Z,11.05
2022-12-19T03:41:47.814Z,10.27
2022-12-19T03:44:16.990Z,13.65
2022-12-19T03:46:51.619Z,10.02
2022-12-19T03:49:18.051Z,11.00
2022-12-19T03:52:05.644Z,11.65
2022-12-19T03:54:39.427Z,12.75
2022-12-19T03:57:33.105Z,13.30
2022-12-19T04:00:13.335Z,10.77
2022-12-19T04:02:43.303Z,14.23
2022-12-19T04:05:14.045Z,12.50
2022-12-19T04:07:41.554Z,10.98
2022-12-19T04:10:11.100Z,13.88
2022-12-19T04:12:42.651Z,7.68
2022-12-19T04:15:09.797Z,13.60
2022-12-19T04:17:53.191Z,13.98
2022-12-19T04:20:22.189Z,12.35
2022-12-19T04:23:03.744Z,13.00
2022-12-19T04:25:37.006Z,12.55
2022-12-19T04:28:12.486Z,12.68
2022-12-19T04:30:41.154Z,12.68
2022-12-19T04:33:07.931Z,12.43
2022-12-19T04:35:34.994Z,12.80
2022-12-19T04:38:02.219Z,13.45
2022-12-19T04:40:28.869Z,14.32
2022-12-19T04:42:55.193Z,15.10
2022-12-19T04:45:21.710Z,14.90
2022-12-19T04:47:48.123Z,13.88
2022-12-19T04:50:14.492Z,11.95
2022-12-19T04:52:40.812Z,10.68
2022-12-19T04:55:07.872Z,7.90
2022-12-19T04:57:34.219Z,11.77
2022-12-19T05:00:00.701Z,13.45
2022-12-19T05:02:27.135Z,13.57
2022-12-19T05:04:53.556Z,13.45
2022-12-19T05:07:19.931Z,9.68
2022-12-19T05:09:46.364Z,13.05
2022-12-19T05:12:12.995Z,10.57
2022-12-19T05:14:39.302Z,13.30
2022-12-19T05:17:05.625Z,11.43
2022-12-19T05:19:31.948Z,12.48
2022-12-19T05:21:58.805Z,13.88
2022-12-19T05:24:25.170Z,12.77
2022-12-19T05:26:51.515Z,13.25
2022-12-19T05:29:17.889Z,14.98
2022-12-19T05:31:44.332Z,13.85
2022-12-19T05:34:11.048Z,14.10
2022-12-19T05:36:37.627Z,12.63
2022-12-19T05:39:04.116Z,13.60
2022-12-19T05:41:30.453Z,12.82
2022-12-19T05:43:56.831Z,13.48
2022-12-19T05:46:24.753Z,9.77
2022-12-19T05:48:51.600Z,11.48
2022-12-19T05:51:18.905Z,12.05
2022-12-19T05:53:45.231Z,11.32
2022-12-19T05:56:14.303Z,11.85
2022-12-19T05:58:41.931Z,9.02
2022-12-19T06:01:15.378Z,11.20
2022-12-19T06:03:42.252Z,10.18
2022-12-19T06:06:14.309Z,10.10
2022-12-19T06:08:41.233Z,8.27
2022-12-19T06:11:09.010Z,10.35
2022-12-19T06:13:36.377Z,9.02
2022-12-19T06:16:06.455Z,8.15
2022-12-19T06:18:32.880Z,10.32
2022-12-19T06:21:01.008Z,9.57
2022-12-19T06:23:29.178Z,9.93
2022-12-19T06:25:57.510Z,9.88
2022-12-19T06:28:24.832Z,10.77
2022-12-19T06:30:51.261Z,9.60
2022-12-19T06:33:17.859Z,10.80
2022-12-19T06:35:44.408Z,8.65
2022-12-19T06:38:10.714Z,9.18
2022-12-19T06:41:00.941Z,10.20
2022-12-19T06:43:27.345Z,9.82
2022-12-19T06:45:56.913Z,8.93
2022-12-19T06:48:23.397Z,7.10
2022-12-19T06:50:49.703Z,10.65
2022-12-19T06:53:21.824Z,10.57
2022-12-19T06:55:50.288Z,10.77
2022-12-19T06:58:21.372Z,9.23
2022-12-19T07:00:50.767Z,11.75
2022-12-19T07:03:21.797Z,12.43
2022-12-19T07:05:48.519Z,9.35
2022-12-19T07:08:14.871Z,11.25
2022-12-19T07:10:41.216Z,12.40
2022-12-19T07:13:07.570Z,10.63
2022-12-19T07:15:35.565Z,13.25
2022-12-19T07:18:03.724Z,12.43
2022-12-19T07:20:33.030Z,12.18
2022-12-19T07:22:59.509Z,11.90
2022-12-19T07:25:26.030Z,13.00
2022-12-19T07:27:52.694Z,11.77
2022-12-19T07:30:19.106Z,12.45
2022-12-19T07:32:45.446Z,12.25
2022-12-19T07:35:11.749Z,11.20
2022-12-19T07:37:38.091Z,11.23
2022-12-19T07:40:04.948Z,11.45
2022-12-19T07:42:32.814Z,14.82
2022-12-19T07:44:59.604Z,12.32
2022-12-19T07:47:27.528Z,12.82
2022-12-19T07:49:53.927Z,13.57
2022-12-19T07:52:20.238Z,10.60
2022-12-19T07:54:46.752Z,12.18
2022-12-19T07:57:13.119Z,12.85
2022-12-19T07:59:39.628Z,13.30
2022-12-19T08:02:06.293Z,13.05
2022-12-19T08:04:34.245Z,13.18
2022-12-19T08:07:02.168Z,11.95
2022-12-19T08:09:28.919Z,10.57
2022-12-19T08:11:55.273Z,9.98
2022-12-19T08:14:21.860Z,10.45
2022-12-19T08:17:18.685Z,11.63
2022-12-19T08:19:34.579Z,11.65
2022-12-19T08:22:01.098Z,7.57
2022-12-19T08:24:27.453Z,11.07
2022-12-19T08:26:53.802Z,11.25
2022-12-19T08:29:20.103Z,11.15
2022-12-19T08:31:46.948Z,10.90
2022-12-19T08:34:13.239Z,9.95
2022-12-19T08:36:39.668Z,8.43
2022-12-19T08:39:06.715Z,8.13
2022-12-19T08:41:34.650Z,10.00
2022-12-19T08:44:02.175Z,10.02
2022-12-19T08:46:29.109Z,9.77
2022-12-19T08:48:56.265Z,8.48
2022-12-19T08:51:22.726Z,9.52
2022-12-19T08:53:49.091Z,9.80
2022-12-19T08:56:17.953Z,9.35
2022-12-19T08:58:45.265Z,7.28
2022-12-19T09:01:14.463Z,8.77
2022-12-19T09:04:08.610Z,8.63
2022-12-19T09:06:27.340Z,8.65
2022-12-19T09:08:53.832Z,7.63
2022-12-19T09:11:26.762Z,9.40
2022-12-19T09:13:56.474Z,8.38
2022-12-19T09:16:24.976Z,7.78
2022-12-19T09:18:53.995Z,8.02
2022-12-19T09:21:22.606Z,8.68
2022-12-19T09:23:52.179Z,9.52
2022-12-19T09:26:19.581Z,8.00
2022-12-19T09:28:47.748Z,8.63
2022-12-19T09:31:20.412Z,8.48
2022-12-19T09:33:47.166Z,9.07
2022-12-19T09:36:24.775Z,6.50
2022-12-19T09:38:54.327Z,6.97
2022-12-19T09:41:39.939Z,9.18
2022-12-19T09:44:19.899Z,10.20
2022-12-19T09:46:56.007Z,8.90
2022-12-19T09:49:24.748Z,8.40
2022-12-19T09:51:59.027Z,9.20
2022-12-19T09:54:28.441Z,8.57
2022-12-19T09:56:59.441Z,9.20
2022-12-19T09:59:49.408Z,9.05
2022-12-19T10:02:33.565Z,9.25
2022-12-19T10:05:43.843Z,8.38
2022-12-19T10:08:09.295Z,9.38
2022-12-19T10:12:46.410Z,9.38
2022-12-19T10:13:59.765Z,9.15
2022-12-19T10:17:22.129Z,8.90
2022-12-19T10:20:01.260Z,9.90
2022-12-19T10:22:42.204Z,8.73
2022-12-19T10:25:11.918Z,9.13
2022-12-19T10:27:59.251Z,9.05
2022-12-19T10:30:27.960Z,8.23
2022-12-19T10:33:32.030Z,9.18
2022-12-19T10:36:02.123Z,10.13
2022-12-19T10:38:49.291Z,9.10
2022-12-19T10:41:20.743Z,9.95
2022-12-19T10:43:50.105Z,9.13
2022-12-19T10:46:35.830Z,8.90
2022-12-19T10:49:11.355Z,7.55
2022-12-19T10:51:37.698Z,8.18
2022-12-19T10:54:04.049Z,7.53
2022-12-19T10:56:37.214Z,8.80
2022-12-19T10:59:15.882Z,8.35
2022-12-19T11:01:42.681Z,5.68
2022-12-19T11:04:30.021Z,6.35
2022-12-19T11:07:02.653Z,7.55
2022-12-19T11:09:47.808Z,7.40
2022-12-19T11:17:02.946Z,8.23
2022-12-19T11:19:58.757Z,4.50
2022-12-19T11:21:44.183Z,7.05
2022-12-19T11:29:37.683Z,6.93
2022-12-19T11:29:54.792Z,7.85
2022-12-19T11:30:43.170Z,5.47
2022-12-19T11:32:41.465Z,6.70
2022-12-19T11:35:25.275Z,5.40
2022-12-19T11:38:06.016Z,6.13
2022-12-19T11:40:48.956Z,6.95
2022-12-19T11:43:45.081Z,5.05
2022-12-19T11:46:28.675Z,6.63
2022-12-19T11:48:59.156Z,6.18
2022-12-19T11:51:43.203Z,7.25
2022-12-19T11:54:16.458Z,6.88
2022-12-19T11:56:42.822Z,6.07
2022-12-19T11:59:29.253Z,5.97
2022-12-19T12:02:12.914Z,6.05
2022-12-19T12:05:03.683Z,5.78
2022-12-19T12:09:13.066Z,4.45
2022-12-19T12:13:41.926Z,3.63
2022-12-19T12:23:07.592Z,4.68
2022-12-19T12:30:59.741Z,4.90
2022-12-19T12:31:09.001Z,5.25
2022-12-19T12:31:41.465Z,4.45
2022-12-19T12:31:49.682Z,2.65
2022-12-19T12:31:50.444Z,3.50
2022-12-19T12:35:45.382Z,4.80
2022-12-19T12:39:25.636Z,4.47
2022-12-19T12:42:27.356Z,4.75
2022-12-19T12:44:58.796Z,5.47
2022-12-19T12:47:27.499Z,5.57
2022-12-19T12:49:58.676Z,5.75
2022-12-19T12:55:23.944Z,5.25
2022-12-19T12:57:50.490Z,5.75
2022-12-19T13:00:29.826Z,4.53
2022-12-19T13:03:18.797Z,4.15
2022-12-19T13:05:52.063Z,5.32
2022-12-19T13:08:34.258Z,5.60
2022-12-19T13:11:03.729Z,5.53
2022-12-19T13:13:50.689Z,4.97
2022-12-19T13:16:45.232Z,5.45
2022-12-19T13:19:24.123Z,4.40
2022-12-19T13:22:09.462Z,5.85
2022-12-19T13:24:45.051Z,5.60
2022-12-19T13:27:20.494Z,4.63
2022-12-19T13:30:16.092Z,4.65
2022-12-19T13:32:51.680Z,3.47
2022-12-19T13:37:17.696Z,4.57
2022-12-19T13:39:51.443Z,4.25
2022-12-19T13:41:46.010Z,4.68
2022-12-19T13:46:38.747Z,5.78
2022-12-19T13:49:15.049Z,4.97
2022-12-19T13:52:02.114Z,5.85
2022-12-19T13:54:47.374Z,5.45
2022-12-19T13:57:26.061Z,5.68
2022-12-19T13:59:59.342Z,6.00
2022-12-19T14:02:44.345Z,6.60
2022-12-19T14:06:14.867Z,7.65
2022-12-19T14:08:22.964Z,7.32
2022-12-19T14:11:41.243Z,6.45
2022-12-19T14:14:12.695Z,6.97
2022-12-19T14:16:45.025Z,6.82
2022-12-19T14:19:27.453Z,7.60
2022-12-19T14:22:10.854Z,7.72
2022-12-19T14:24:41.536Z,8.05
2022-12-19T14:28:19.381Z,8.30
2022-12-19T14:30:29.848Z,7.80
2022-12-19T14:33:45.707Z,7.53
2022-12-19T14:36:11.292Z,7.45
2022-12-19T14:39:24.522Z,7.57
2022-12-19T14:41:46.799Z,8.05
2022-12-19T14:52:08.390Z,8.35
2022-12-19T14:54:06.517Z,7.80
2022-12-19T14:54:25.677Z,7.30
2022-12-19T14:54:40.843Z,6.53
2022-12-19T14:56:12.352Z,7.90
2022-12-19T14:58:54.064Z,7.93
2022-12-19T15:01:32.760Z,7.03
2022-12-19T15:04:53.369Z,7.65
2022-12-19T15:07:09.861Z,7.25
2022-12-19T15:11:05.268Z,7.75
2022-12-19T15:14:51.987Z,5.95
2022-12-19T15:16:05.466Z,6.82
2022-12-19T15:18:31.771Z,6.97
2022-12-19T15:21:10.316Z,6.95
2022-12-19T15:23:36.643Z,7.50
2022-12-19T15:26:15.496Z,7.43
2022-12-19T15:28:54.069Z,7.18
2022-12-19T15:31:35.282Z,6.93
2022-12-19T15:34:36.812Z,7.22
2022-12-19T15:37:04.743Z,6.78
2022-12-19T15:39:31.155Z,6.78
2022-12-19T15:41:59.915Z,6.93
2022-12-19T15:44:35.752Z,6.50
2022-12-19T15:47:05.454Z,5.60
2022-12-19T15:49:34.824Z,6.25
2022-12-19T15:52:02.526Z,6.40
2022-12-19T15:57:31.302Z,6.63
2022-12-19T16:00:03.933Z,6.60
2022-12-19T16:03:04.542Z,6.15
2022-12-19T16:05:20.024Z,6.68
2022-12-19T16:07:47.093Z,7.18
2022-12-19T16:10:14.387Z,6.45
2022-12-19T16:12:48.095Z,6.50
2022-12-19T16:15:27.248Z,6.97
2022-12-19T16:17:54.743Z,6.32
2022-12-19T16:20:24.229Z,6.07
2022-12-19T16:22:50.775Z,5.28
2022-12-19T16:25:17.610Z,6.35
2022-12-19T16:27:44.351Z,6.15
2022-12-19T16:30:18.847Z,6.40
2022-12-19T16:32:45.821Z,6.70
2022-12-19T16:35:17.552Z,6.20
2022-12-19T16:37:50.507Z,6.22
2022-12-19T16:40:19.494Z,6.80
2022-12-19T16:42:47.883Z,6.65
2022-12-19T16:45:20.122Z,6.68
2022-12-19T16:47:48.298Z,6.20
2022-12-19T16:50:22.217Z,7.05
2022-12-19T16:52:48.536Z,6.30
2022-12-19T16:55:15.417Z,6.63
2022-12-19T16:57:44.532Z,5.95
2022-12-19T17:00:17.917Z,6.10
2022-12-19T17:02:49.906Z,6.20
2022-12-19T17:05:22.834Z,7.38
2022-12-19T17:07:50.319Z,6.10
2022-12-19T17:10:21.306Z,6.28
2022-12-19T17:12:52.117Z,6.07
2022-12-19T17:15:18.482Z,5.72
2022-12-19T17:17:45.363Z,6.22
2022-12-19T17:20:23.567Z,6.53
2022-12-19T17:22:49.928Z,5.93
2022-12-19T17:25:24.865Z,5.68
2022-12-19T17:27:52.749Z,6.18
2022-12-19T17:30:20.158Z,5.93
2022-12-19T17:32:50.310Z,6.07
2022-12-19T17:35:27.610Z,6.10
2022-12-19T17:37:56.273Z,5.30
2022-12-19T17:40:26.241Z,5.50
2022-12-19T17:42:53.621Z,5.50
2022-12-19T17:45:22.074Z,4.85
2022-12-19T17:47:49.076Z,5.38
2022-12-19T17:50:24.683Z,4.93
2022-12-19T17:52:51.465Z,5.55
2022-12-19T17:55:19.885Z,5.25
2022-12-19T17:57:46.400Z,5.45
2022-12-19T18:00:14.307Z,5.47
2022-12-19T18:02:41.499Z,5.00
2022-12-19T18:05:15.171Z,4.82
2022-12-19T18:07:41.490Z,5.20
2022-12-19T18:10:24.126Z,5.35
2022-12-19T18:12:50.738Z,4.50
2022-12-19T18:15:19.068Z,5.20
2022-12-19T18:17:47.811Z,4.63
2022-12-19T18:20:32.307Z,4.90
2022-12-19T18:22:59.983Z,4.93
2022-12-19T18:25:29.046Z,4.90
2022-12-19T18:27:55.558Z,5.18
2022-12-19T18:30:23.844Z,5.05
2022-12-19T18:32:55.401Z,5.03
2022-12-19T18:35:28.381Z,4.85
2022-12-19T18:37:58.707Z,4.45
2022-12-19T18:40:31.196Z,4.40
2022-12-19T18:42:58.196Z,4.35
2022-12-19T18:45:34.140Z,3.95
2022-12-19T18:48:02.583Z,4.40
2022-12-19T18:50:29.656Z,4.40
2022-12-19T18:52:56.129Z,4.28
2022-12-19T18:55:25.215Z,4.20
2022-12-19T18:57:51.677Z,4.30
2022-12-19T19:00:26.081Z,4.05
2022-12-19T19:02:56.836Z,4.68
2022-12-19T19:07:52.122Z,3.15
2022-12-19T19:10:20.900Z,3.40
2022-12-19T19:12:49.034Z,2.80
2022-12-19T19:15:15.461Z,3.45
2022-12-19T19:17:42.254Z,2.70
2022-12-19T19:20:09.022Z,2.55
2022-12-19T19:22:35.406Z,3.05
2022-12-19T19:25:01.929Z,2.65
2022-12-19T19:27:28.265Z,2.30
2022-12-19T19:29:54.618Z,2.45
2022-12-19T19:32:21.186Z,2.47
2022-12-19T19:34:48.762Z,2.80
2022-12-19T19:37:15.642Z,2.30
2022-12-19T19:39:42.451Z,2.28
2022-12-19T19:42:08.795Z,2.75
2022-12-19T19:44:35.243Z,3.35
2022-12-19T19:47:01.916Z,2.85
2022-12-19T19:49:28.302Z,2.50
2022-12-19T19:52:00.506Z,2.38
2022-12-19T19:54:29.045Z,2.75
2022-12-19T19:56:55.364Z,2.20
2022-12-19T19:59:21.934Z,2.03
2022-12-19T20:01:48.433Z,2.17
2022-12-19T20:04:15.155Z,2.03
2022-12-19T20:06:41.485Z,2.50
2022-12-19T20:09:07.846Z,2.20
2022-12-19T20:11:35.301Z,2.55
2022-12-19T20:14:01.710Z,2.17
2022-12-19T20:16:28.171Z,2.53
2022-12-19T20:18:54.667Z,2.58
2022-12-19T20:21:21.726Z,2.70
2022-12-19T20:23:48.302Z,2.88
2022-12-19T20:26:16.296Z,2.63
2022-12-19T20:28:48.840Z,2.78
2022-12-19T20:31:19.519Z,2.67
2022-12-19T20:33:46.261Z,2.72
2022-12-19T20:36:13.619Z,2.28
2022-12-19T20:38:40.377Z,2.53
2022-12-19T20:41:07.472Z,2.13
2022-12-19T20:43:34.042Z,1.92
2022-12-19T20:46:05.768Z,1.50
2022-12-19T20:48:32.909Z,1.30
2022-12-19T20:51:00.387Z,1.98
2022-12-19T20:53:27.229Z,1.67
2022-12-19T20:55:58.020Z,0.77
2022-12-19T20:58:25.570Z,0.98
2022-12-19T21:01:04.375Z,1.30
2022-12-19T21:03:31.024Z,1.30
2022-12-19T21:05:57.884Z,1.10
2022-12-19T21:08:25.625Z,1.50
2022-12-19T21:10:52.929Z,1.88
2022-12-19T21:13:19.682Z,1.42
2022-12-19T21:15:47.516Z,1.50
2022-12-19T21:18:13.895Z,1.60
2022-12-19T21:20:40.242Z,1.50
2022-12-19T21:23:06.611Z,1.38
2022-12-19T21:25:32.919Z,1.20
2022-12-19T21:27:59.310Z,1.50
2022-12-19T21:30:25.838Z,1.48
2022-12-19T21:32:52.307Z,1.52
2022-12-19T21:35:18.634Z,1.13
2022-12-19T21:37:51.704Z,1.85
2022-12-19T21:40:19.369Z,1.55
2022-12-19T21:42:47.196Z,1.15
2022-12-19T21:45:14.996Z,2.17
2022-12-19T21:47:41.992Z,2.17
2022-12-19T21:50:13.454Z,2.70
2022-12-19T21:52:40.218Z,1.70
2022-12-19T21:55:08.209Z,1.08
2022-12-19T21:57:41.402Z,1.08
2022-12-19T22:00:11.565Z,1.40
2022-12-19T22:02:38.490Z,1.58
2022-12-19T22:05:06.437Z,2.13
2022-12-19T22:07:33.201Z,1.25
2022-12-19T22:09:59.984Z,1.40
2022-12-19T22:12:26.352Z,1.70
2022-12-19T22:14:52.665Z,1.42
2022-12-19T22:17:18.961Z,1.67
2022-12-19T22:19:45.386Z,1.40
2022-12-19T22:22:12.168Z,1.80
2022-12-19T22:24:38.515Z,1.48
2022-12-19T22:27:04.983Z,1.90
2022-12-19T22:29:36.129Z,2.00
2022-12-19T22:34:30.036Z,0.88
2022-12-19T22:36:56.489Z,1.55
2022-12-19T22:39:22.921Z,1.60
2022-12-19T22:41:50.014Z,1.75
2022-12-19T22:44:21.957Z,1.30
2022-12-19T22:46:48.937Z,1.70
2022-12-19T22:49:15.532Z,1.60
2022-12-19T22:51:42.532Z,2.00
2022-12-19T22:54:10.300Z,2.08
2022-12-19T22:56:37.575Z,2.40
2022-12-19T22:59:06.730Z,1.85
2022-12-19T23:01:39.094Z,1.85
2022-12-19T23:04:07.588Z,1.90
2022-12-19T23:06:35.893Z,2.13
2022-12-19T23:09:03.572Z,2.13
2022-12-19T23:11:35.478Z,2.30
2022-12-19T23:14:04.264Z,2.78
2022-12-19T23:16:30.660Z,2.45
2022-12-19T23:18:57.348Z,2.70
2022-12-19T23:21:25.482Z,2.50
2022-12-19T23:23:54.132Z,3.20
2022-12-19T23:26:29.523Z,3.08
2022-12-19T23:28:58.359Z,2.95
2022-12-19T23:31:25.428Z,2.58
2022-12-19T23:33:51.879Z,1.52
2022-12-19T23:36:32.388Z,2.60
2022-12-19T23:39:05.452Z,3.17
2022-12-19T23:41:31.814Z,3.03
2022-12-19T23:43:58.240Z,2.65
2022-12-19T23:46:26.627Z,1.90
2022-12-19T23:48:53.293Z,2.10
2022-12-19T23:51:22.772Z,2.65
2022-12-19T23:53:49.115Z,2.30
2022-12-19T23:56:27.404Z,2.00
2022-12-19T23:58:54.477Z,1.50
